Time;durP1;ratioP1;P1;durP2;ratioP2;P2;SDS_P1;SDS_P2;PMS_P1;PMS_P2;Temp;Humidity;BMP_temperature;BMP_pressure;BME280_temperature;BME280_humidity;BME280_pressure;Samples;Min_cycle;Max_cycle;Signal;HPM_P1;HPM_P2
2022/07/22 00:01:05;;;;;;;16.90;4.53;;;29.00;48.80;;;;;;5007322;28;20022;-54
2022/07/22 00:03:31;;;;;;;12.83;3.93;;;29.00;48.80;;;;;;5011986;28;20029;-54
2022/07/22 00:05:56;;;;;;;8.70;4.30;;;28.90;49.00;;;;;;4995891;28;20034;-54
2022/07/22 00:08:22;;;;;;;10.73;3.47;;;28.90;49.20;;;;;;5012186;28;20042;-54
2022/07/22 00:10:48;;;;;;;11.53;4.07;;;;;;;;;;4994123;28;20364;-55
2022/07/22 00:13:14;;;;;;;8.45;4.53;;;;;;;;;;4994404;28;20394;-56
2022/07/22 00:15:40;;;;;;;10.52;3.88;;;;;;;;;;4995207;28;20038;-57
2022/07/22 00:18:06;;;;;;;9.02;3.75;;;;;;;;;;5002270;28;20035;-56
2022/07/22 00:20:32;;;;;;;9.55;3.47;;;;;;;;;;5013141;28;20040;-52
2022/07/22 00:22:59;;;;;;;12.15;4.30;;;;;;;;;;5014721;28;20022;-53
2022/07/22 00:25:25;;;;;;;10.10;3.75;;;;;;;;;;5006092;28;20030;-55
2022/07/22 00:27:51;;;;;;;17.75;4.07;;;;;;;;;;5004946;28;20108;-54
2022/07/22 00:30:17;;;;;;;10.00;3.33;;;;;;;;;;5013541;28;20034;-60
2022/07/22 00:32:43;;;;;;;10.40;3.75;;;;;;;;;;5012158;28;20022;-55
2022/07/22 00:35:09;;;;;;;10.10;3.78;;;;;;;;;;4999796;28;20041;-56
2022/07/22 00:37:36;;;;;;;10.98;3.78;;;;;;;;;;4998597;28;20037;-58
2022/07/22 00:40:02;;;;;;;11.05;3.75;;;;;;;;;;5000305;28;20029;-56
2022/07/22 00:42:28;;;;;;;6.72;3.92;;;;;;;;;;4996616;28;20101;-54
2022/07/22 00:44:54;;;;;;;8.02;3.67;;;;;;;;;;4996573;28;20057;-58
2022/07/22 00:47:20;;;;;;;10.65;4.30;;;;;;;;;;4995331;28;20484;-54
2022/07/22 00:49:46;;;;;;;10.82;3.75;;;;;;;;;;5001975;28;20041;-55
2022/07/22 00:52:12;;;;;;;8.75;4.78;;;;;;;;;;5010891;28;20037;-57
2022/07/22 00:54:38;;;;;;;8.27;4.30;;;;;;;;;;5009136;28;20030;-55
2022/07/22 00:57:04;;;;;;;10.27;4.60;;;;;;;;;;4996255;28;20022;-54
2022/07/22 00:59:31;;;;;;;11.75;4.38;;;;;;;;;;5011691;28;20026;-57
2022/07/22 01:01:57;;;;;;;8.00;3.75;;;;;;;;;;5006467;28;20019;-56
2022/07/22 01:04:23;;;;;;;8.95;4.07;;;;;;;;;;5005278;28;20380;-56
2022/07/22 01:06:49;;;;;;;9.73;4.15;;;;;;;;;;4982718;28;20027;-57
2022/07/22 01:09:15;;;;;;;8.85;4.05;;;;;;;;;;4975459;28;20402;-55
2022/07/22 01:11:41;;;;;;;8.60;3.55;;;;;;;;;;4994548;28;20057;-54
2022/07/22 01:14:08;;;;;;;13.23;4.35;;;;;;;;;;4995003;28;20026;-55
2022/07/22 01:16:34;;;;;;;12.20;4.07;;;;;;;;;;4999908;28;20026;-54
2022/07/22 01:19:00;;;;;;;6.70;3.90;;;;;;;;;;5006363;28;20041;-55
2022/07/22 01:21:26;;;;;;;12.07;4.03;;;;;;;;;;5014023;28;20444;-58
2022/07/22 01:23:52;;;;;;;7.43;3.47;;;;;;;;;;5014152;28;20029;-57
2022/07/22 01:26:18;;;;;;;10.18;3.95;;;;;;;;;;5009708;28;20410;-54
2022/07/22 01:28:45;;;;;;;9.55;3.78;;;;;;;;;;4982973;28;20062;-55
2022/07/22 01:31:11;;;;;;;7.80;4.00;;;;;;;;;;4975188;28;20034;-54
2022/07/22 01:33:37;;;;;;;7.38;4.95;;;;;;;;;;4991958;28;20057;-57
2022/07/22 01:36:04;;;;;;;9.10;3.80;;;;;;;;;;4994606;28;20056;-59
2022/07/22 01:38:30;;;;;;;7.50;4.20;;;;;;;;;;4994376;28;20034;-58
2022/07/22 01:40:56;;;;;;;7.57;5.07;;;;;;;;;;4994489;28;20053;-58
2022/07/22 01:43:22;;;;;;;8.05;4.40;;;;;;;;;;4999075;28;20030;-58
2022/07/22 01:45:49;;;;;;;10.25;5.28;;;;;;;;;;5013530;28;20033;-57
2022/07/22 01:48:16;;;;;;;9.45;4.60;;;;;;;;;;4995820;28;20097;-52
2022/07/22 01:50:42;;;;;;;10.88;5.38;;;;;;;;;;5012481;28;20029;-54
2022/07/22 01:53:08;;;;;;;7.03;5.05;;;;;;;;;;5006333;28;20039;-55
2022/07/22 01:55:34;;;;;;;14.82;5.07;;;;;;;;;;5013175;28;20112;-56
2022/07/22 01:58:01;;;;;;;7.60;4.63;;;;;;;;;;5011787;28;20026;-55
2022/07/22 02:00:27;;;;;;;9.50;5.30;;;;;;;;;;5001125;28;20053;-55
2022/07/22 02:02:53;;;;;;;14.32;5.47;;;;;;;;;;5011861;28;20052;-52
2022/07/22 02:05:19;;;;;;;6.70;5.30;;;;;;;;;;4994106;28;20023;-53
2022/07/22 02:07:45;;;;;;;10.70;6.35;;;;;;;;;;4996463;28;20026;-53
2022/07/22 02:10:11;;;;;;;6.55;4.88;;;;;;;;;;5011710;28;20025;-53
2022/07/22 02:12:37;;;;;;;11.35;5.70;;;;;;;;;;5001394;28;20439;-56
2022/07/22 02:15:03;;;;;;;7.07;5.55;;;;;;;;;;5010001;28;20026;-54
2022/07/22 02:17:29;;;;;;;12.13;5.40;;;;;;;;;;5011560;28;20030;-55
2022/07/22 02:19:55;;;;;;;11.00;6.35;;;;;;;;;;5000062;28;20034;-58
2022/07/22 02:22:22;;;;;;;11.40;6.43;;;;;;;;;;4993745;28;20026;-57
2022/07/22 02:24:48;;;;;;;14.30;6.63;;;;;;;;;;5006116;28;20049;-54
2022/07/22 02:27:14;;;;;;;9.25;6.43;;;;;;;;;;5005879;28;20034;-55
2022/07/22 02:29:40;;;;;;;11.68;7.45;;;;;;;;;;4994366;28;20027;-57
2022/07/22 02:32:06;;;;;;;10.23;7.00;;;;;;;;;;5001513;28;20510;-55
2022/07/22 02:34:32;;;;;;;14.55;6.72;;;;;;;;;;5005432;28;20076;-56
2022/07/22 02:36:58;;;;;;;17.40;7.38;;;;;;;;;;5012884;28;20061;-55
2022/07/22 02:39:24;;;;;;;14.18;7.72;;;;;;;;;;5012699;28;20030;-55
2022/07/22 02:41:50;;;;;;;22.38;7.75;;;;;;;;;;5012863;28;20033;-56
2022/07/22 02:44:16;;;;;;;14.43;7.82;;;;;;;;;;5002129;28;20021;-55
2022/07/22 02:46:42;;;;;;;16.23;7.93;;;;;;;;;;4998369;28;20026;-54
2022/07/22 02:49:08;;;;;;;12.98;7.30;;;;;;;;;;5010649;28;20037;-54
2022/07/22 02:51:34;;;;;;;10.63;7.53;;;;;;;;;;4998924;28;20126;-56
2022/07/22 02:54:00;;;;;;;17.40;8.27;;;;;;;;;;5004273;28;20507;-57
2022/07/22 02:56:26;;;;;;;10.82;7.15;;;;;;;;;;5007082;28;20488;-56
2022/07/22 02:58:52;;;;;;;11.05;6.95;;;;;;;;;;5010629;28;20525;-57
2022/07/22 03:01:19;;;;;;;14.55;7.40;;;;;;;;;;5000980;28;20038;-56
2022/07/22 03:03:45;;;;;;;;;;;;;;;;;;5000738;28;20513;-57
2022/07/22 03:06:12;;;;;;;12.75;8.00;;;;;;;;;;4997746;28;19917;-57
2022/07/22 03:08:38;;;;;;;13.98;7.53;;;;;;;;;;4992729;28;20399;-57
2022/07/22 03:11:04;;;;;;;;;;;;;;;;;;4992978;28;20023;-59
2022/07/22 03:13:30;;;;;;;17.75;7.78;;;;;;;;;;4994087;28;19920;-57
2022/07/22 03:15:56;;;;;;;16.38;7.95;;;;;;;;;;4993100;28;20109;-58
2022/07/22 03:18:22;;;;;;;12.48;7.97;;;;;;;;;;4992664;28;20041;-56
2022/07/22 03:20:48;;;;;;;14.10;8.10;;;;;;;;;;4992685;28;20022;-51
2022/07/22 03:23:14;;;;;;;14.80;7.65;;;;;;;;;;4992455;28;20105;-54
2022/07/22 03:25:41;;;;;;;12.40;8.05;;;;;;;;;;4992751;28;20089;-54
2022/07/22 03:28:07;;;;;;;14.82;7.95;;;;;;;;;;4992033;28;20069;-57
2022/07/22 03:30:33;;;;;;;15.52;8.13;;;;;;;;;;5000401;28;20034;-58
2022/07/22 03:32:59;;;;;;;22.13;8.07;;;;;;;;;;5010862;28;20026;-55
2022/07/22 03:35:25;;;;;;;14.02;8.57;;;;;;;;;;5012100;28;20030;-55
2022/07/22 03:37:51;;;;;;;11.57;8.20;;;;;;;;;;5011750;28;20030;-53
2022/07/22 03:40:17;;;;;;;12.68;7.65;;;;;;;;;;5008551;28;20498;-57
2022/07/22 03:42:43;;;;;;;11.07;9.13;;;;;;;;;;5011639;28;20057;-55
2022/07/22 03:45:10;;;;;;;10.88;8.38;;;;;;;;;;5005589;28;20265;-54
2022/07/22 03:47:36;;;;;;;30.30;9.68;;;;;;;;;;4991664;28;20023;-54
2022/07/22 03:50:02;;;;;;;22.83;10.45;;;;;;;;;;4972731;28;20023;-61
2022/07/22 03:52:31;;;;;;;15.98;9.55;;;;;;;;;;4987244;28;20116;-51
2022/07/22 03:54:57;;;;;;;24.45;10.07;;;;;;;;;;4991284;28;20052;-52
2022/07/22 03:57:23;;;;;;;24.58;9.82;;;;;;;;;;4991986;28;20034;-53
2022/07/22 03:59:49;;;;;;;17.70;9.13;;;;;;;;;;4990660;28;20030;-52
2022/07/22 04:02:15;;;;;;;17.30;8.13;;;;;;;;;;4985244;28;20023;-51
2022/07/22 04:04:41;;;;;;;15.48;8.55;;;;;;;;;;4989731;28;20022;-50
2022/07/22 04:07:07;;;;;;;21.50;8.80;;;;;;;;;;4991337;28;20031;-54
2022/07/22 04:09:33;;;;;;;13.85;9.43;;;;;;;;;;4989861;28;20442;-52
2022/07/22 04:11:59;;;;;;;16.58;8.88;;;;;;;;;;4991079;28;20038;-51
2022/07/22 04:14:25;;;;;;;13.68;8.45;;;;;;;;;;4991874;28;20030;-52
2022/07/22 04:16:51;;;;;;;21.27;9.10;;;;;;;;;;4990749;28;20030;-52
2022/07/22 04:19:17;;;;;;;24.73;9.85;;;;;;;;;;4991747;28;20476;-52
2022/07/22 04:21:43;;;;;;;17.63;8.87;;;;;;;;;;4992015;28;20033;-53
2022/07/22 04:24:09;;;;;;;12.00;7.77;;;;;;;;;;4992042;28;20254;-53
2022/07/22 04:26:36;;;;;;;12.15;8.32;;;;;;;;;;4992081;28;20273;-52
2022/07/22 04:29:02;;;;;;;12.10;8.02;;;;;;;;;;4991911;28;20026;-52
2022/07/22 04:31:28;;;;;;;20.85;8.43;;;;;;;;;;4992099;28;20034;-54
2022/07/22 04:33:54;;;;;;;15.30;8.35;;;28.80;49.20;;;;;;4992105;28;20030;-49
2022/07/22 04:36:20;;;;;;;14.50;8.33;;;27.20;53.50;;;;;;4992037;28;20079;-53
2022/07/22 04:38:46;;;;;;;48.50;11.27;;;27.10;53.80;;;;;;4991927;28;20038;-53
2022/07/22 04:41:11;;;;;;;25.43;8.60;;;27.10;54.10;;;;;;4995716;28;20031;-52
2022/07/22 04:43:37;;;;;;;15.30;8.10;;;27.10;53.90;;;;;;4995866;28;20023;-49
2022/07/22 04:46:03;;;;;;;15.57;8.63;;;27.10;54.10;;;;;;4995645;28;20030;-49
2022/07/22 04:48:29;;;;;;;12.13;7.60;;;27.20;53.70;;;;;;4995376;28;20511;-50
2022/07/22 04:50:58;;;;;;;13.20;7.40;;;;;;;;;;4995510;28;20023;-49
2022/07/22 04:53:24;;;;;;;16.08;8.20;;;;;;;;;;4995385;28;20056;-51
2022/07/22 04:55:50;;;;;;;11.17;7.40;;;;;;;;;;4995396;28;20471;-49
2022/07/22 04:58:16;;;;;;;13.38;7.50;;;;;;;;;;4995291;28;20324;-51
2022/07/22 05:00:42;;;;;;;21.20;7.65;;;;;;;;;;4995257;28;20034;-56
2022/07/22 05:03:08;;;;;;;16.75;8.38;;;;;;;;;;4994968;28;20085;-53
2022/07/22 05:05:35;;;;;;;14.10;6.75;;;;;;;;;;4993943;28;20023;-52
2022/07/22 05:08:01;;;;;;;13.70;6.75;;;;;;;;;;4995086;28;20122;-51
2022/07/22 05:10:27;;;;;;;17.25;6.60;;;;;;;;;;4993652;28;20117;-52
2022/07/22 05:12:53;;;;;;;11.48;7.35;;;;;;;;;;4995604;28;20557;-51
2022/07/22 05:15:19;;;;;;;13.50;8.13;;;;;;;;;;4995177;28;20566;-51
2022/07/22 05:17:45;;;;;;;13.30;7.70;;;;;;;;;;4995256;28;20478;-53
2022/07/22 05:20:12;;;;;;;10.75;6.90;;;;;;;;;;4993979;28;20019;-57
2022/07/22 05:22:38;;;;;;;13.35;7.13;;;;;;;;;;4994632;28;20030;-58
2022/07/22 05:25:04;;;;;;;8.10;6.90;;;;;;;;;;4994789;28;20022;-56
2022/07/22 05:27:30;;;;;;;22.75;8.90;;;;;;;;;;4994626;28;20026;-58
2022/07/22 05:29:57;;;;;;;9.32;7.00;;;;;;;;;;4993788;28;20030;-59
2022/07/22 05:32:23;;;;;;;18.92;8.30;;;;;;;;;;4993820;28;20545;-55
2022/07/22 05:34:49;;;;;;;17.13;8.10;;;;;;;;;;4993665;28;20034;-58
2022/07/22 05:37:15;;;;;;;18.02;10.00;;;;;;;;;;4993454;28;20096;-56
2022/07/22 05:39:42;;;;;;;21.63;9.48;;;;;;;;;;4993445;28;20078;-57
2022/07/22 05:42:08;;;;;;;24.73;9.10;;;;;;;;;;4993895;28;20045;-58
2022/07/22 05:44:34;;;;;;;19.67;8.65;;;;;;;;;;4993998;28;20106;-57
2022/07/22 05:47:00;;;;;;;15.90;7.90;;;;;;;;;;4994853;28;20101;-58
2022/07/22 05:49:26;;;;;;;12.00;8.02;;;;;;;;;;4993907;28;20046;-59
2022/07/22 05:51:53;;;;;;;12.77;8.35;;;;;;;;;;4992823;28;20048;-57
2022/07/22 05:54:19;;;;;;;12.55;8.23;;;;;;;;;;4994250;28;20495;-57
2022/07/22 05:56:45;;;;;;;21.73;8.80;;;;;;;;;;4994212;28;20031;-58
2022/07/22 05:59:11;;;;;;;18.42;7.95;;;;;;;;;;4992597;28;20026;-57
2022/07/22 06:01:37;;;;;;;16.20;8.40;;;;;;;;;;4994088;28;20031;-56
2022/07/22 06:04:03;;;;;;;18.88;8.82;;;;;;;;;;4994065;28;20101;-57
2022/07/22 06:06:29;;;;;;;15.75;8.10;;;;;;;;;;4993956;28;20131;-57
2022/07/22 06:08:55;;;;;;;17.73;7.72;;;;;;;;;;4993418;28;20092;-57
2022/07/22 06:11:21;;;;;;;12.02;7.07;;;;;;;;;;4993440;28;20100;-49
2022/07/22 06:13:47;;;;;;;16.38;6.18;;;;;;;;;;4993606;28;20097;-49
2022/07/22 06:16:13;;;;;;;14.88;7.80;;;;;;;;;;4993909;28;20088;-50
2022/07/22 06:18:39;;;;;;;12.23;6.32;;;;;;;;;;4993408;28;20121;-51
2022/07/22 06:21:07;;;;;;;14.05;6.15;;;;;;;;;;4993759;28;20113;-50
2022/07/22 06:23:33;;;;;;;8.32;5.25;;;;;;;;;;4994093;28;20026;-50
2022/07/22 06:25:59;;;;;;;15.75;5.50;;;;;;;;;;4993901;28;20026;-50
2022/07/22 06:28:26;;;;;;;11.43;4.25;;;;;;;;;;4993492;28;20025;-49
2022/07/22 06:30:52;;;;;;;12.75;5.75;;;;;;;;;;4993610;28;20038;-49
2022/07/22 06:33:18;;;;;;;13.85;4.05;;;;;;;;;;4991470;28;20113;-50
2022/07/22 06:35:44;;;;;;;9.60;4.88;;;;;;;;;;4992996;28;20030;-51
2022/07/22 06:38:10;;;;;;;8.88;3.55;;;;;;;;;;4993399;28;20022;-49
2022/07/22 06:40:36;;;;;;;6.00;3.40;;;;;;;;;;4993319;28;20050;-49
2022/07/22 06:43:02;;;;;;;25.30;3.85;;;;;;;;;;4993469;28;20022;-51
2022/07/22 06:45:28;;;;;;;8.32;3.30;;;;;;;;;;4993264;28;20345;-49
2022/07/22 06:47:55;;;;;;;3.38;2.40;;;;;;;;;;4993227;28;20019;-49
2022/07/22 06:50:21;;;;;;;;;;;;;;;;;;4992319;28;20030;-49
2022/07/22 06:52:48;;;;;;;9.63;3.22;;;;;;;;;;4993207;28;20354;-58
2022/07/22 06:55:15;;;;;;;6.72;2.75;;;;;;;;;;4993251;28;20018;-55
2022/07/22 06:57:41;;;;;;;6.55;2.97;;;;;;;;;;4992878;28;20029;-57
2022/07/22 07:00:08;;;;;;;9.85;3.20;;;;;;;;;;4991605;28;20030;-57
2022/07/22 07:02:34;;;;;;;8.43;3.67;;;;;;;;;;4990473;28;20509;-58
2022/07/22 07:05:00;;;;;;;9.00;3.25;;;;;;;;;;4992624;28;20046;-59
2022/07/22 07:07:26;;;;;;;4.70;3.55;;;;;;;;;;4992807;28;20027;-57
2022/07/22 07:09:52;;;;;;;11.38;3.95;;;;;;;;;;4992723;28;20026;-58
2022/07/22 07:12:18;;;;;;;4.88;3.40;;;;;;;;;;4992886;28;20033;-57
2022/07/22 07:14:44;;;;;;;8.02;3.08;;;;;;;;;;4992780;28;20498;-57
2022/07/22 07:17:10;;;;;;;8.35;4.10;;;;;;;;;;4992511;28;20061;-57
2022/07/22 07:19:36;;;;;;;6.82;2.70;;;;;;;;;;4992496;28;20403;-56
2022/07/22 07:22:02;;;;;;;6.30;3.33;;;;;;;;;;4992672;28;20023;-57
2022/07/22 07:24:28;;;;;;;14.25;3.40;;;;;;;;;;4992702;28;20018;-59
2022/07/22 07:26:54;;;;;;;13.85;3.53;;;;;;;;;;4992677;28;20029;-57
2022/07/22 07:29:22;;;;;;;5.57;3.13;;;;;;;;;;4992226;28;20038;-57
2022/07/22 07:31:48;;;;;;;6.50;3.20;;;;;;;;;;4992416;28;20538;-57
2022/07/22 07:34:14;;;;;;;8.20;3.67;;;;;;;;;;4992510;28;20077;-58
2022/07/22 07:36:40;;;;;;;10.80;3.35;;;;;;;;;;4992462;28;20033;-58
2022/07/22 07:39:06;;;;;;;15.55;3.97;;;;;;;;;;4992152;28;20412;-58
2022/07/22 07:41:32;;;;;;;7.45;3.65;;;;;;;;;;4992465;28;20042;-58
2022/07/22 07:43:58;;;;;;;10.27;4.32;;;;;;;;;;4992337;28;20023;-58
2022/07/22 07:46:24;;;;;;;7.30;3.90;;;;;;;;;;4992395;28;20034;-59
2022/07/22 07:48:51;;;;;;;8.23;5.00;;;;;;;;;;4992171;28;20102;-58
2022/07/22 07:51:17;;;;;;;6.07;3.70;;;;;;;;;;4991017;28;20065;-57
2022/07/22 07:53:43;;;;;;;12.73;5.32;;;;;;;;;;4992376;28;20022;-57
2022/07/22 07:56:09;;;;;;;9.93;4.10;;;;;;;;;;4992291;28;20037;-57
2022/07/22 07:58:35;;;;;;;9.63;4.60;;;;;;;;;;4991837;28;20026;-57
2022/07/22 08:01:01;;;;;;;11.50;4.90;;;;;;;;;;4992091;28;20022;-58
2022/07/22 08:03:27;;;;;;;7.18;3.85;;;;;;;;;;4992216;28;20391;-57
2022/07/22 08:05:54;;;;;;;13.50;4.78;;;;;;;;;;4992253;28;20458;-57
2022/07/22 08:08:20;;;;;;;10.57;3.80;;;;;;;;;;4992219;28;20484;-58
2022/07/22 08:10:46;;;;;;;12.48;3.83;;;;;;;;;;4992058;28;20096;-57
2022/07/22 08:13:12;;;;;;;10.80;4.10;;;;;;;;;;4993099;28;20521;-58
2022/07/22 08:15:38;;;;;;;18.50;4.28;;;;;;;;;;4996182;28;20403;-57
2022/07/22 08:18:05;;;;;;;8.77;3.97;;;;;;;;;;4995840;28;20113;-58
2022/07/22 08:20:31;;;;;;;6.43;4.00;;;;;;;;;;4995794;28;20105;-58
2022/07/22 08:22:57;;;;;;;8.82;4.20;;;;;;;;;;4996042;28;20077;-58
2022/07/22 08:25:23;;;;;;;6.78;4.43;;;;;;;;;;4995957;28;20030;-57
2022/07/22 08:27:49;;;;;;;7.03;4.00;;;;;;;;;;4995751;28;20018;-57
2022/07/22 08:30:15;;;;;;;12.85;4.00;;;;;;;;;;4995594;28;20038;-57
2022/07/22 08:32:41;;;;;;;12.80;3.92;;;;;;;;;;4995766;28;20099;-58
2022/07/22 08:35:09;;;;;;;12.50;3.85;;;;;;;;;;4995689;28;20157;-58
2022/07/22 08:37:35;;;;;;;9.80;4.10;;;;;;;;;;4995700;28;20019;-58
2022/07/22 08:40:01;;;;;;;7.50;4.45;;;;;;;;;;4995414;28;20088;-58
2022/07/22 08:42:27;;;;;;;13.32;4.35;;;;;;;;;;4995976;28;20334;-57
2022/07/22 08:44:55;;;;;;;6.38;4.15;;;;;;;;;;4995467;28;20031;-59
2022/07/22 08:47:23;;;;;;;8.27;3.88;;;;;;;;;;4995542;28;20394;-59
2022/07/22 08:49:49;;;;;;;11.15;3.35;;;;;;;;;;4995248;28;20035;-58
2022/07/22 08:52:15;;;;;;;8.77;4.10;;;;;;;;;;4995474;28;20034;-57
2022/07/22 08:54:41;;;;;;;8.52;3.10;;;;;;;;;;4995329;28;20045;-58
2022/07/22 08:57:07;;;;;;;8.45;3.88;;;;;;;;;;4995085;28;20030;-58
2022/07/22 08:59:33;;;;;;;15.93;4.18;;;;;;;;;;4995071;28;20033;-58
2022/07/22 09:02:07;;;;;;;12.45;3.83;;;;;;;;;;4995244;28;20026;-58
2022/07/22 09:04:33;;;;;;;11.82;3.90;;;;;;;;;;4995266;28;20038;-59
2022/07/22 09:07:00;;;;;;;13.23;4.00;;;;;;;;;;4995219;28;20069;-54
2022/07/22 09:09:32;;;;;;;7.97;4.00;;;;;;;;;;4994810;28;20033;-57
2022/07/22 09:12:05;;;;;;;8.18;2.90;;;;;;;;;;4995115;28;20034;-58
2022/07/22 09:14:52;;;;;;;8.93;3.13;;;;;;;;;;4995242;28;20395;-58
2022/07/22 09:17:25;;;;;;;8.70;3.05;;;;;;;;;;4994626;28;20034;-57
2022/07/22 09:19:51;;;;;;;12.88;4.40;;;;;;;;;;4993304;28;20412;-54
2022/07/22 09:22:33;;;;;;;18.70;3.67;;;;;;;;;;4994875;28;20054;-58
2022/07/22 09:24:59;;;;;;;9.52;3.45;;;;;;;;;;4994187;28;20018;-57
2022/07/22 09:27:26;;;;;;;6.30;3.15;;;;;;;;;;4994679;28;20026;-58
2022/07/22 09:29:53;;;;;;;9.98;3.00;;;;;;;;;;4994464;28;20549;-57
2022/07/22 09:32:19;;;;;;;8.77;2.65;;;;;;;;;;4994562;28;20033;-59
2022/07/22 09:34:45;;;;;;;6.05;2.67;;;;;;;;;;4994634;28;20037;-58
2022/07/22 09:37:11;;;;;;;11.77;2.85;;;;;;;;;;4993286;28;20037;-55
2022/07/22 09:39:38;;;;;;;9.45;3.33;;;;;;;;;;4994373;28;20032;-57
2022/07/22 09:42:08;;;;;;;7.78;3.20;;;;;;;;;;4994691;28;20022;-56
2022/07/22 09:44:34;;;;;;;8.52;3.05;;;;;;;;;;4994453;28;20081;-57
2022/07/22 09:47:01;;;;;;;12.70;3.30;;;;;;;;;;4993021;28;20105;-58
2022/07/22 09:49:34;;;;;;;7.03;2.88;;;;;;;;;;4992783;28;20036;-58
2022/07/22 09:52:01;;;;;;;12.00;3.55;;;;;;;;;;4994326;28;20030;-56
2022/07/22 09:54:29;;;;;;;8.60;2.55;;;;;;;;;;4993177;28;20026;-58
2022/07/22 09:56:55;;;;;;;6.00;3.17;;;;;;;;;;4994468;28;20030;-58
2022/07/22 09:59:21;;;;;;;5.65;2.50;;;;;;;;;;4994231;28;20073;-58
2022/07/22 10:01:48;;;;;;;14.98;3.63;;;;;;;;;;4994629;28;20037;-57
2022/07/22 10:04:14;;;;;;;7.68;2.20;;;;;;;;;;4994720;28;20022;-55
2022/07/22 10:06:42;;;;;;;9.32;3.05;;;;;;;;;;4994727;28;20033;-58
2022/07/22 10:09:08;;;;;;;21.48;2.65;;;;;;;;;;4993502;28;20027;-56
2022/07/22 10:11:35;;;;;;;12.38;3.38;;;;;;;;;;5004542;28;20033;-58
2022/07/22 10:14:03;;;;;;;10.25;2.55;;;;;;;;;;4994195;28;20050;-56
2022/07/22 10:16:29;;;;;;;4.43;2.60;;;;;;;;;;5008670;28;20172;-57
2022/07/22 10:18:55;;;;;;;;;;;;;;;;;;5004969;28;20109;-55
2022/07/22 10:21:31;;;;;;;9.75;2.45;;;;;;;;;;5012042;28;20357;-57
2022/07/22 10:24:08;;;;;;;5.45;3.00;;;;;;;;;;5009459;28;20117;-57
2022/07/22 10:26:50;;;;;;;6.15;2.75;;;;;;;;;;4993779;28;20022;-58
2022/07/22 10:29:35;;;;;;;12.75;2.50;;;;;;;;;;4997372;28;20038;-56
2022/07/22 10:32:16;;;;;;;4.85;2.70;;;;;;;;;;5012890;28;20033;-57
2022/07/22 10:35:09;;;;;;;5.93;2.40;;;;;;;;;;5012928;28;20034;-57
2022/07/22 10:37:36;;;;;;;10.30;2.38;;;;;;;;;;4992821;28;20407;-57
2022/07/22 10:40:11;;;;;;;7.70;2.67;;;;;;;;;;4997221;28;20023;-56
2022/07/22 10:42:56;;;;;;;6.80;2.53;;;;;;;;;;4992187;28;20034;-58
2022/07/22 10:45:23;;;;;;;3.90;2.45;;;;;;;;;;4993247;28;20037;-58
2022/07/22 10:47:53;;;;;;;9.50;2.92;;;;;;;;;;5003241;28;20065;-57
2022/07/22 10:50:41;;;;;;;7.60;2.70;;;;;;;;;;5012034;28;20105;-58
2022/07/22 10:53:07;;;;;;;9.73;3.05;;;;;;;;;;4993257;28;20042;-56
2022/07/22 10:55:33;;;;;;;7.82;2.83;;;;;;;;;;5011073;28;20037;-57
2022/07/22 10:58:00;;;;;;;10.63;3.00;;;;;;;;;;4994663;28;20038;-56
2022/07/22 11:00:26;;;;;;;;;;;;;;;;;;4992685;28;20125;-56
2022/07/22 11:02:52;;;;;;;5.63;2.80;;;;;;;;;;5005782;28;20285;-58
2022/07/22 11:05:29;;;;;;;6.95;2.80;;;;;;;;;;4994569;28;20670;-58
2022/07/22 11:07:55;;;;;;;;;;;;;;;;;;4993321;28;20093;-57
2022/07/22 11:10:21;;;;;;;10.65;2.78;;;;;;;;;;5000230;28;20301;-58
2022/07/22 11:12:47;;;;;;;;;;;;;;;;;;4999128;28;20030;-59
2022/07/22 11:15:14;;;;;;;8.38;2.95;;;;;;;;;;4992011;28;19997;-58
2022/07/22 11:17:40;;;;;;;;;;;;;;;;;;5034449;23;20038;-47
2022/07/22 11:20:10;;;;;;;5.57;2.33;;;;;;;;;;5008748;28;19952;-48
2022/07/22 11:22:37;;;;;;;5.18;2.20;;;;;;;;;;5012092;28;20022;-52
2022/07/22 11:25:07;;;;;;;4.78;2.78;;;;;;;;;;5011036;28;20022;-48
2022/07/22 11:27:34;;;;;;;6.65;2.50;;;;;;;;;;5012268;28;20026;-48
2022/07/22 11:30:00;;;;;;;7.68;2.15;;;;;;;;;;5048851;28;20028;-50
2022/07/22 11:32:30;;;;;;;11.98;2.50;;;;;;;;;;5050555;28;20033;-50
2022/07/22 11:34:57;;;;;;;6.80;2.08;;;;;;;;;;5039894;28;20025;-50
2022/07/22 11:37:24;;;;;;;12.05;2.40;;;;;;;;;;5050070;28;20033;-50
2022/07/22 11:39:51;;;;;;;9.73;2.40;;;;;;;;;;5051633;28;20021;-50
2022/07/22 11:42:17;;;;;;;7.07;2.42;;;;;;;;;;5051843;28;20123;-48
2022/07/22 11:44:44;;;;;;;11.18;2.25;;;;;;;;;;5051800;28;20021;-51
2022/07/22 11:47:11;;;;;;;10.82;2.95;;;;;;;;;;5040030;28;20037;-50
2022/07/22 11:49:38;;;;;;;9.30;2.42;;;;;;;;;;5032418;28;20087;-51
2022/07/22 11:52:08;;;;;;;10.90;2.63;;;;;;;;;;5031712;28;20156;-50
2022/07/22 11:54:35;;;;;;;5.25;2.33;;;;;;;;;;5031835;28;20532;-50
2022/07/22 11:57:02;;;;;;;8.05;2.72;;;;;;;;;;5039418;28;20033;-50
2022/07/22 11:59:28;;;;;;;8.05;2.92;;;;;;;;;;5051190;28;20098;-50
2022/07/22 12:01:54;;;;;;;;;;;;;;;;;;5051830;28;20036;-50
2022/07/22 12:04:23;;;;;;;5.82;2.50;;;;;;;;;;5045934;28;19909;-50
2022/07/22 12:06:49;;;;;;;9.77;2.55;;;;;;;;;;5031554;28;20025;-49
2022/07/22 12:09:17;;;;;;;10.18;2.58;;;;;;;;;;5031333;28;20029;-50
2022/07/22 12:11:45;;;;;;;3.78;2.30;;;;;;;;;;5045029;28;20025;-50
2022/07/22 12:14:12;;;;;;;6.47;2.17;;;;;;;;;;5051142;28;20061;-50
2022/07/22 12:16:39;;;;;;;23.23;3.95;;;;;;;;;;5051445;28;20100;-50
2022/07/22 12:19:07;;;;;;;4.63;2.60;;;;;;;;;;5049090;28;20116;-50
2022/07/22 12:21:34;;;;;;;10.27;2.60;;;;;;;;;;5042698;28;20120;-49
2022/07/22 12:24:01;;;;;;;5.15;2.97;;;;;;;;;;5051434;28;20032;-50
2022/07/22 12:26:27;;;;;;;;;;;;;;;;;;5050519;28;20017;-50
2022/07/22 12:29:12;;;;;;;9.60;2.47;;;;;;;;;;5051146;28;19911;-50
2022/07/22 12:31:45;;;;;;;4.97;2.22;;;;;;;;;;5037888;28;20493;-50
2022/07/22 12:34:12;;;;;;;9.32;3.05;;;;;;;;;;5032697;28;20029;-49
2022/07/22 12:36:38;;;;;;;13.02;3.28;;;;;;;;;;5051269;28;20040;-50
2022/07/22 12:39:15;;;;;;;5.38;2.70;;;;;;;;;;5049666;28;20075;-49
2022/07/22 12:41:41;;;;;;;;;;;;;;;;;;5037919;28;20021;-51
2022/07/22 12:44:07;;;;;;;8.63;2.63;;;;;;;;;;5031089;28;20347;-49
2022/07/22 12:46:35;;;;;;;;;;;;;;;;;;5032998;28;20025;-50
2022/07/22 12:49:01;;;;;;;7.20;3.20;;;;;;;;;;5036429;28;19909;-50
2022/07/22 12:51:27;;;;;;;;;;;;;;;;;;5051596;28;20039;-50
2022/07/22 12:53:53;;;;;;;9.10;2.70;;;;;;;;;;5051299;28;19904;-50
2022/07/22 12:56:19;;;;;;;;;;;;;;;;;;5051519;28;20400;-50
2022/07/22 12:58:46;;;;;;;6.18;2.45;;;;;;;;;;5045755;28;19992;-51
2022/07/22 13:01:12;;;;;;;2.88;2.58;;;;;;;;;;5053446;28;20088;-51
2022/07/22 13:03:38;;;;;;;;;;;;;;;;;;5050198;28;20013;-50
2022/07/22 13:06:06;;;;;;;9.35;2.60;;;;;;;;;;5034547;28;19916;-50
2022/07/22 13:08:33;;;;;;;5.65;3.42;;;;;;;;;;5048470;28;20489;-50
2022/07/22 13:10:59;;;;;;;5.07;2.55;;;;;;;;;;5034105;28;20021;-50
2022/07/22 13:13:26;;;;;;;10.23;2.40;;;;;;;;;;5034146;28;20035;-50
2022/07/22 13:15:53;;;;;;;8.20;3.00;;;;;;;;;;5034606;28;20029;-50
2022/07/22 13:18:19;;;;;;;27.08;4.43;;;;;;;;;;5035470;28;20042;-51
2022/07/22 13:20:46;;;;;;;4.70;2.50;;;;;;;;;;5052549;28;20045;-50
2022/07/22 13:23:13;;;;;;;21.05;3.00;;;;;;;;;;5045882;28;20025;-51
2022/07/22 13:25:39;;;;;;;7.38;3.13;;;;;;;;;;5034362;28;20053;-49
2022/07/22 13:28:06;;;;;;;3.50;2.67;;;;;;;;;;5033695;28;20059;-50
2022/07/22 13:30:32;;;;;;;4.82;3.00;;;;;;;;;;5032671;28;20108;-52
2022/07/22 13:32:58;;;;;;;8.63;2.83;;;;;;;;;;5034097;28;20103;-50
2022/07/22 13:35:25;;;;;;;8.10;2.50;;;;;;;;;;5036620;28;20017;-49
2022/07/22 13:37:51;;;;;;;4.65;2.30;;;;;;;;;;5052360;28;20606;-49
2022/07/22 13:40:17;;;;;;;10.38;2.90;;;;;;;;;;5036926;28;20049;-51
2022/07/22 13:42:43;;;;;;;10.93;2.70;;;;;;;;;;5033528;28;20061;-47
2022/07/22 13:45:11;;;;;;;5.10;2.40;;;;;;;;;;5044106;28;20059;-49
2022/07/22 13:47:37;;;;;;;6.82;2.60;;;;;;;;;;5043832;28;20029;-48
2022/07/22 13:50:04;;;;;;;7.13;2.53;;;;;;;;;;5044505;28;20028;-48
2022/07/22 13:52:31;;;;;;;5.70;2.90;;;;;;;;;;5039884;28;20021;-47
2022/07/22 13:54:57;;;;;;;4.65;2.30;;;;;;;;;;5044633;28;20032;-51
2022/07/22 13:57:23;;;;;;;4.55;2.60;;;;;;;;;;5048669;28;20091;-49
2022/07/22 13:59:49;;;;;;;21.92;3.25;;;;;;;;;;5041832;28;20448;-49
2022/07/22 14:02:16;;;;;;;51.50;5.10;;;;;;;;;;5038599;28;20482;-49
2022/07/22 14:04:42;;;;;;;7.47;2.45;;;;;;;;;;5052824;28;20508;-48
2022/07/22 14:07:08;;;;;;;6.07;2.22;;;;;;;;;;5047238;28;20033;-49
2022/07/22 14:09:34;;;;;;;4.95;2.17;;;;;;;;;;5032866;28;20131;-49
2022/07/22 14:12:00;;;;;;;11.23;2.72;;;;;;;;;;5033034;28;20032;-48
2022/07/22 14:14:26;;;;;;;7.35;2.50;;;;;;;;;;5033317;28;20053;-51
2022/07/22 14:16:53;;;;;;;4.32;2.47;;;;;;;;;;5036978;28;20030;-48
2022/07/22 14:19:19;;;;;;;4.35;2.30;;;;;;;;;;5032467;28;20037;-48
2022/07/22 14:21:46;;;;;;;9.55;2.15;;;;;;;;;;5045312;28;20389;-49
2022/07/22 14:24:13;;;;;;;11.18;3.08;;;;;;;;;;5033061;28;20022;-48
2022/07/22 14:26:40;;;;;;;4.68;2.60;;;;;;;;;;5031359;28;20389;-48
2022/07/22 14:29:06;;;;;;;7.15;2.65;;;;;;;;;;5032944;28;20034;-49
2022/07/22 14:31:33;;;;;;;3.95;2.20;;;;;;;;;;5033080;28;20029;-49
2022/07/22 14:33:59;;;;;;;3.72;2.50;;;;;;;;;;5032918;28;20099;-48